Time;durP1;ratioP1;P1;durP2;ratioP2;P2;SDS_P1;SDS_P2;PMS_P1;PMS_P2;Temp;Humidity;BMP_temperature;BMP_pressure;BME280_temperature;BME280_humidity;BME280_pressure;Samples;Min_cycle;Max_cycle;Signal;HPM_P1;HPM_P2
2022/09/07 05:00:21;;;;;;;5.97;3.53;;;21.40;97.20;;;;;;1759994;28;20182;-72
2022/09/07 05:01:13;;;;;;;4.80;3.20;;;21.40;97.20;;;;;;1762841;28;20205;-71
2022/09/07 05:02:05;;;;;;;4.65;3.47;;;21.40;97.20;;;;;;1762804;28;20246;-72
2022/09/07 05:02:56;;;;;;;4.57;3.10;;;21.40;97.20;;;;;;1762845;28;20217;-71
2022/09/07 05:03:49;;;;;;;3.90;2.80;;;21.40;97.20;;;;;;1762951;28;20836;-71
2022/09/07 05:04:40;;;;;;;6.28;3.25;;;21.40;97.20;;;;;;1762822;28;20205;-72
2022/09/07 05:05:31;;;;;;;7.43;3.30;;;21.40;97.20;;;;;;1762784;27;20730;-71
2022/09/07 05:06:22;;;;;;;3.33;3.03;;;21.40;97.20;;;;;;1762610;28;20453;-72
2022/09/07 05:07:14;;;;;;;3.33;2.90;;;21.40;97.20;;;;;;1762466;27;20200;-72
2022/09/07 05:08:05;;;;;;;3.95;3.17;;;21.30;97.20;;;;;;1762747;28;20791;-71
2022/09/07 05:08:58;;;;;;;4.27;2.63;;;21.30;97.20;;;;;;1762684;28;20315;-72
2022/09/07 05:09:49;;;;;;;4.15;3.05;;;21.30;97.20;;;;;;1762779;28;20608;-72
2022/09/07 05:10:50;;;;;;;4.27;3.10;;;21.30;97.20;;;;;;1762814;28;20607;-72
2022/09/07 05:11:41;;;;;;;5.30;3.10;;;21.30;97.20;;;;;;1762789;28;20367;-71
2022/09/07 05:12:33;;;;;;;11.17;4.13;;;21.30;97.20;;;;;;1762839;28;20280;-71
2022/09/07 05:13:24;;;;;;;3.50;2.40;;;21.30;97.20;;;;;;1762701;28;20459;-72
2022/09/07 05:14:16;;;;;;;3.77;2.67;;;21.30;97.20;;;;;;1762773;28;20205;-72
2022/09/07 05:15:07;;;;;;;5.22;3.08;;;21.30;97.20;;;;;;1762755;28;20205;-71
2022/09/07 05:16:07;;;;;;;5.68;2.85;;;21.30;97.20;;;;;;1762626;28;20774;-72
2022/09/07 05:16:57;;;;;;;5.82;3.40;;;21.30;97.20;;;;;;1762738;28;20217;-71
2022/09/07 05:17:49;;;;;;;5.23;3.13;;;21.30;97.20;;;;;;1762517;28;20217;-71
2022/09/07 05:18:41;;;;;;;3.83;2.80;;;21.30;97.20;;;;;;1762631;28;20205;-72
2022/09/07 05:19:33;;;;;;;3.78;2.90;;;21.30;97.20;;;;;;1762720;28;20228;-72
2022/09/07 05:20:24;;;;;;;5.55;2.60;;;21.30;97.20;;;;;;1762611;28;20201;-72
2022/09/07 05:21:18;;;;;;;4.32;2.70;;;21.30;97.20;;;;;;1762670;28;20197;-71
2022/09/07 05:22:10;;;;;;;9.52;3.58;;;21.30;97.20;;;;;;1761970;28;20194;-71
2022/09/07 05:23:01;;;;;;;5.50;2.80;;;21.30;97.20;;;;;;1762740;28;20652;-71
2022/09/07 05:23:54;;;;;;;3.80;2.72;;;21.30;97.20;;;;;;1762661;28;20197;-71
2022/09/07 05:24:47;;;;;;;7.00;3.25;;;21.40;97.20;;;;;;1762618;28;20197;-70
2022/09/07 05:25:42;;;;;;;3.90;2.88;;;21.40;97.20;;;;;;1757746;28;20546;-71
2022/09/07 05:26:36;;;;;;;4.78;2.97;;;21.40;97.20;;;;;;1748621;28;20253;-76
2022/09/07 05:27:26;;;;;;;4.80;2.90;;;21.40;97.20;;;;;;1748319;28;20206;-71
2022/09/07 05:28:18;;;;;;;6.10;2.70;;;21.40;97.20;;;;;;1748684;28;20214;-72
2022/09/07 05:29:09;;;;;;;4.30;2.70;;;21.40;97.20;;;;;;1748600;28;20194;-72
2022/09/07 05:30:01;;;;;;;4.13;2.90;;;21.40;97.20;;;;;;1748621;28;20225;-72
2022/09/07 05:30:52;;;;;;;4.18;2.60;;;21.40;97.20;;;;;;1749992;28;20351;-71
2022/09/07 05:31:45;;;;;;;3.77;2.60;;;21.40;97.20;;;;;;1755477;28;20228;-71
2022/09/07 05:32:36;;;;;;;6.63;2.70;;;21.40;97.20;;;;;;1750697;28;20217;-73
2022/09/07 05:33:28;;;;;;;5.85;2.95;;;21.40;97.20;;;;;;1749982;28;20293;-71
2022/09/07 05:34:19;;;;;;;4.60;2.63;;;21.40;97.20;;;;;;1755318;28;20225;-70
2022/09/07 05:35:11;;;;;;;5.53;2.90;;;21.40;97.20;;;;;;1753637;28;20198;-69
2022/09/07 05:36:04;;;;;;;4.45;3.30;;;21.40;97.20;;;;;;1751715;28;20206;-71
2022/09/07 05:36:55;;;;;;;5.57;3.00;;;21.30;97.20;;;;;;1748148;28;20268;-72
2022/09/07 05:37:49;;;;;;;5.03;3.13;;;21.30;97.20;;;;;;1747885;28;20202;-72
2022/09/07 05:38:41;;;;;;;6.07;3.10;;;21.30;97.20;;;;;;1748293;28;20252;-71
2022/09/07 05:39:32;;;;;;;6.32;3.30;;;21.30;97.20;;;;;;1748435;28;20229;-71
2022/09/07 05:40:24;;;;;;;4.53;3.10;;;21.30;97.20;;;;;;1750054;28;20199;-74
2022/09/07 05:41:18;;;;;;;5.68;2.90;;;21.20;97.20;;;;;;1755331;28;20221;-72
2022/09/07 05:42:09;;;;;;;3.60;3.08;;;21.20;97.20;;;;;;1755331;28;20194;-73
2022/09/07 05:43:00;;;;;;;8.50;3.17;;;21.20;97.20;;;;;;1755169;28;20197;-72
2022/09/07 05:43:53;;;;;;;6.33;3.33;;;21.20;97.20;;;;;;1755232;28;20201;-72
2022/09/07 05:44:44;;;;;;;4.80;3.17;;;21.20;97.20;;;;;;1755431;28;20660;-72
2022/09/07 05:45:35;;;;;;;4.40;2.90;;;21.30;97.20;;;;;;1754645;28;20666;-73
2022/09/07 05:46:26;;;;;;;4.38;2.70;;;21.30;97.20;;;;;;1755221;28;20447;-71
2022/09/07 05:47:20;;;;;;;3.57;2.60;;;21.30;97.20;;;;;;1753905;28;20205;-72
2022/09/07 05:48:11;;;;;;;3.10;2.90;;;21.30;97.20;;;;;;1755473;28;20435;-71
2022/09/07 05:49:03;;;;;;;3.67;2.65;;;21.30;97.20;;;;;;1755183;28;20197;-72
2022/09/07 05:49:54;;;;;;;2.75;2.55;;;21.30;97.20;;;;;;1755373;28;20198;-71
2022/09/07 05:50:52;;;;;;;5.53;2.73;;;21.30;97.20;;;;;;1755304;28;20228;-73
2022/09/07 05:51:43;;;;;;;5.90;2.72;;;21.30;97.20;;;;;;1755364;28;20444;-72
2022/09/07 05:52:35;;;;;;;6.60;3.33;;;21.30;97.20;;;;;;1755251;28;20233;-71
2022/09/07 05:53:27;;;;;;;8.85;3.33;;;21.40;97.20;;;;;;1755425;28;20206;-71
2022/09/07 05:54:18;;;;;;;5.10;3.10;;;21.30;97.20;;;;;;1755322;28;20201;-72
2022/09/07 05:55:09;;;;;;;3.35;2.97;;;21.40;97.20;;;;;;1755304;28;20198;-72
2022/09/07 05:56:02;;;;;;;5.27;3.03;;;21.40;97.20;;;;;;1749251;28;20282;-71
2022/09/07 05:56:52;;;;;;;3.75;3.22;;;21.40;97.20;;;;;;1752329;28;20594;-71
2022/09/07 05:57:44;;;;;;;3.97;3.03;;;21.40;97.20;;;;;;1754694;28;20284;-72
2022/09/07 05:58:36;;;;;;;4.95;2.90;;;21.40;97.20;;;;;;1755120;28;20206;-73
2022/09/07 05:59:28;;;;;;;4.60;3.10;;;21.40;97.20;;;;;;1755199;28;20698;-71
2022/09/07 06:00:20;;;;;;;4.75;3.25;;;21.40;97.20;;;;;;1755198;28;20209;-71
2022/09/07 06:01:12;;;;;;;6.22;3.00;;;21.40;97.20;;;;;;1755363;28;20229;-72
2022/09/07 06:02:04;;;;;;;11.13;3.28;;;21.30;97.20;;;;;;1755272;28;20209;-72
2022/09/07 06:02:57;;;;;;;5.53;3.50;;;21.40;97.20;;;;;;1755324;28;20293;-72
2022/09/07 06:03:48;;;;;;;3.40;2.67;;;21.30;97.20;;;;;;1755131;28;20584;-71
2022/09/07 06:04:39;;;;;;;5.80;3.13;;;21.40;97.20;;;;;;1755324;28;20627;-72
2022/09/07 06:05:30;;;;;;;5.90;3.13;;;21.30;97.20;;;;;;1753486;28;20201;-71
2022/09/07 06:06:22;;;;;;;4.37;2.87;;;21.40;97.20;;;;;;1748106;28;20225;-71
2022/09/07 06:07:13;;;;;;;4.60;3.42;;;21.30;97.20;;;;;;1747549;28;20202;-72
2022/09/07 06:08:05;;;;;;;6.32;3.20;;;21.30;97.20;;;;;;1748269;28;20202;-71
2022/09/07 06:08:56;;;;;;;5.07;2.75;;;21.30;97.20;;;;;;1748085;28;20217;-72
2022/09/07 06:09:48;;;;;;;6.00;3.10;;;21.30;97.20;;;;;;1748264;28;20669;-71
2022/09/07 06:10:39;;;;;;;5.90;3.05;;;21.30;97.20;;;;;;1748197;28;20203;-71
2022/09/07 06:11:31;;;;;;;4.40;2.90;;;21.30;97.20;;;;;;1748215;28;20198;-72
2022/09/07 06:12:21;;;;;;;3.40;3.10;;;21.30;97.20;;;;;;1748111;28;20457;-72
2022/09/07 06:13:13;;;;;;;3.10;2.70;;;21.30;97.20;;;;;;1748324;28;20705;-71
2022/09/07 06:14:04;;;;;;;6.30;3.45;;;21.30;97.20;;;;;;1748149;28;20199;-72
2022/09/07 06:14:55;;;;;;;4.47;3.20;;;21.30;97.20;;;;;;1748289;28;20206;-71
2022/09/07 06:15:47;;;;;;;4.17;3.07;;;21.30;97.20;;;;;;1751224;28;20763;-73
2022/09/07 06:16:37;;;;;;;6.40;3.50;;;21.30;97.20;;;;;;1754985;28;20202;-75
2022/09/07 06:17:30;;;;;;;4.73;2.60;;;21.30;97.20;;;;;;1754678;28;20911;-72
2022/09/07 06:18:22;;;;;;;3.83;2.75;;;21.30;97.20;;;;;;1755078;28;20581;-72
2022/09/07 06:19:14;;;;;;;4.32;2.85;;;21.30;97.20;;;;;;1755113;28;20209;-72
2022/09/07 06:20:06;;;;;;;8.90;2.83;;;21.30;97.20;;;;;;1755057;28;20232;-72
2022/09/07 06:21:02;;;;;;;4.32;2.92;;;21.30;97.20;;;;;;1755215;28;20204;-71
2022/09/07 06:21:53;;;;;;;4.28;3.20;;;21.40;97.20;;;;;;1755308;28;20185;-71
2022/09/07 06:22:45;;;;;;;4.87;2.57;;;21.40;97.20;;;;;;1753427;28;20197;-71
2022/09/07 06:23:37;;;;;;;5.00;3.15;;;21.40;97.20;;;;;;1754918;28;20197;-71
2022/09/07 06:24:29;;;;;;;4.00;2.75;;;21.40;97.20;;;;;;1755139;28;20579;-73
2022/09/07 06:25:20;;;;;;;5.38;2.65;;;21.50;97.20;;;;;;1753404;28;20190;-71
2022/09/07 06:26:12;;;;;;;3.97;2.77;;;21.50;97.20;;;;;;1755180;28;20218;-72
2022/09/07 06:27:03;;;;;;;2.72;2.40;;;21.50;97.20;;;;;;1754801;28;20591;-71
2022/09/07 06:27:55;;;;;;;2.90;2.23;;;21.50;97.20;;;;;;1754637;28;20616;-72
2022/09/07 06:28:47;;;;;;;5.47;2.40;;;21.50;97.20;;;;;;1755069;28;20452;-73
2022/09/07 06:29:39;;;;;;;4.28;2.72;;;21.50;97.20;;;;;;1755001;28;20235;-73
2022/09/07 06:30:30;;;;;;;6.25;2.90;;;21.60;97.20;;;;;;1755089;28;20266;-71
2022/09/07 06:31:23;;;;;;;3.70;2.93;;;21.60;97.20;;;;;;1755038;28;20205;-71
2022/09/07 06:32:14;;;;;;;4.85;2.75;;;21.60;97.20;;;;;;1755037;28;20823;-71
2022/09/07 06:33:05;;;;;;;4.33;2.70;;;21.60;97.20;;;;;;1755090;28;20284;-72
2022/09/07 06:33:58;;;;;;;3.63;2.60;;;21.70;97.20;;;;;;1754949;28;20439;-72
2022/09/07 06:34:49;;;;;;;6.35;2.92;;;21.70;97.20;;;;;;1755064;28;20202;-74
2022/09/07 06:35:40;;;;;;;4.75;2.72;;;21.70;97.20;;;;;;1748721;28;20233;-73
2022/09/07 06:36:32;;;;;;;4.43;2.70;;;21.80;97.20;;;;;;1747965;28;20688;-72
2022/09/07 06:37:23;;;;;;;5.10;2.80;;;21.80;97.20;;;;;;1747302;28;20587;-72
2022/09/07 06:38:15;;;;;;;6.70;3.27;;;21.80;97.20;;;;;;1748084;28;20202;-74
2022/09/07 06:39:06;;;;;;;6.57;3.72;;;21.80;97.20;;;;;;1748020;28;20441;-72
2022/09/07 06:39:58;;;;;;;4.53;2.60;;;21.80;97.20;;;;;;1749139;28;20229;-73
2022/09/07 06:40:49;;;;;;;5.47;2.60;;;21.90;97.20;;;;;;1754822;28;20205;-73
2022/09/07 06:41:40;;;;;;;9.10;2.90;;;21.90;97.20;;;;;;1757503;28;20192;-73
2022/09/07 06:42:31;;;;;;;5.00;2.67;;;21.90;97.20;;;;;;1761373;28;20257;-73
2022/09/07 06:43:23;;;;;;;3.23;2.77;;;21.90;97.20;;;;;;1761320;28;20246;-73
2022/09/07 06:44:14;;;;;;;5.70;2.60;;;21.90;97.20;;;;;;1761449;28;20275;-72
2022/09/07 06:45:08;;;;;;;3.60;2.67;;;21.90;97.20;;;;;;1761773;28;20240;-72
2022/09/07 06:46:00;;;;;;;5.95;2.75;;;21.90;97.20;;;;;;1756527;28;20194;-73
2022/09/07 06:46:51;;;;;;;5.63;2.63;;;21.90;97.20;;;;;;1754736;28;20278;-73
2022/09/07 06:47:42;;;;;;;4.07;2.90;;;22.00;97.20;;;;;;1754494;28;20205;-72
2022/09/07 06:48:34;;;;;;;6.20;3.30;;;22.00;97.20;;;;;;1754970;28;20233;-73
2022/09/07 06:49:26;;;;;;;5.82;3.05;;;22.00;97.20;;;;;;1754933;28;20212;-73
2022/09/07 06:50:18;;;;;;;4.53;3.30;;;22.00;97.20;;;;;;1754993;28;20609;-73
2022/09/07 06:51:13;;;;;;;6.18;2.90;;;22.00;97.20;;;;;;1755037;28;20206;-76
2022/09/07 06:52:04;;;;;;;6.75;2.70;;;22.00;97.20;;;;;;1754953;28;20200;-72
2022/09/07 06:52:55;;;;;;;3.72;2.80;;;22.00;97.20;;;;;;1755043;28;20194;-73
2022/09/07 06:53:48;;;;;;;5.43;2.80;;;22.00;97.20;;;;;;1755032;28;20205;-73
2022/09/07 06:54:39;;;;;;;3.70;2.60;;;22.00;97.20;;;;;;1754943;28;20197;-73
2022/09/07 06:55:31;;;;;;;9.33;2.87;;;22.00;97.20;;;;;;1754990;28;20236;-72
2022/09/07 06:56:23;;;;;;;5.10;2.83;;;22.00;97.20;;;;;;1754789;28;20451;-73
2022/09/07 06:57:14;;;;;;;7.15;3.10;;;22.00;97.20;;;;;;1754214;28;20215;-72
2022/09/07 06:58:05;;;;;;;2.85;2.35;;;22.10;97.20;;;;;;1759583;28;20193;-73
2022/09/07 06:58:58;;;;;;;5.20;2.47;;;22.10;97.20;;;;;;1761844;28;20235;-72
2022/09/07 06:59:49;;;;;;;3.45;2.40;;;22.10;97.20;;;;;;1761927;28;20201;-76
2022/09/07 07:00:41;;;;;;;2.97;2.37;;;22.10;97.20;;;;;;1762003;27;20208;-73
2022/09/07 07:01:32;;;;;;;3.55;2.45;;;22.10;97.20;;;;;;1762018;28;20197;-72
2022/09/07 07:02:24;;;;;;;4.05;2.85;;;22.20;97.20;;;;;;1761891;28;20290;-73
2022/09/07 07:03:15;;;;;;;3.92;2.60;;;22.20;97.20;;;;;;1761963;28;20212;-72
2022/09/07 07:04:07;;;;;;;3.05;2.30;;;22.20;97.20;;;;;;1761993;28;20203;-72
2022/09/07 07:04:59;;;;;;;5.00;3.15;;;22.20;97.20;;;;;;1761860;28;20197;-71
2022/09/07 07:05:52;;;;;;;4.13;2.78;;;22.30;97.20;;;;;;1761953;28;20197;-72
2022/09/07 07:06:43;;;;;;;5.53;2.90;;;22.30;97.20;;;;;;1761547;28;20228;-73
2022/09/07 07:07:35;;;;;;;4.87;2.90;;;22.30;97.20;;;;;;1761360;28;20201;-72
2022/09/07 07:08:26;;;;;;;5.85;3.15;;;22.40;97.20;;;;;;1761797;28;20197;-72
2022/09/07 07:09:18;;;;;;;4.03;3.20;;;22.40;97.20;;;;;;1756253;27;20194;-72
2022/09/07 07:10:09;;;;;;;8.82;3.15;;;22.40;97.20;;;;;;1754891;28;20436;-71
2022/09/07 07:11:02;;;;;;;6.97;3.13;;;22.40;97.20;;;;;;1754807;28;20194;-73
2022/09/07 07:11:53;;;;;;;2.95;2.42;;;22.50;97.20;;;;;;1755021;28;20571;-72
2022/09/07 07:12:45;;;;;;;5.50;3.03;;;22.50;97.20;;;;;;1754830;28;20201;-73
2022/09/07 07:13:38;;;;;;;5.80;2.70;;;22.50;97.20;;;;;;1754892;28;20213;-74
2022/09/07 07:14:29;;;;;;;7.70;3.67;;;22.60;97.20;;;;;;1754754;28;20583;-75
2022/09/07 07:15:20;;;;;;;4.63;2.53;;;22.60;97.20;;;;;;1754726;28;20272;-72
2022/09/07 07:16:13;;;;;;;6.32;3.20;;;22.60;97.20;;;;;;1754761;28;20206;-72
2022/09/07 07:17:05;;;;;;;5.43;3.22;;;22.60;97.20;;;;;;1754528;28;20293;-73
2022/09/07 07:17:56;;;;;;;6.22;2.80;;;22.60;97.20;;;;;;1754286;28;20202;-74
2022/09/07 07:18:51;;;;;;;3.28;2.10;;;22.70;97.20;;;;;;1754339;28;20653;-72
2022/09/07 07:19:41;;;;;;;5.55;2.70;;;22.70;97.20;;;;;;1747725;28;20259;-73
2022/09/07 07:20:36;;;;;;;3.67;2.47;;;22.70;97.20;;;;;;1749996;28;20263;-73
2022/09/07 07:21:27;;;;;;;4.57;2.40;;;22.80;97.20;;;;;;1753953;28;20293;-73
2022/09/07 07:22:19;;;;;;;5.63;2.70;;;22.80;97.20;;;;;;1748187;28;20703;-74
2022/09/07 07:23:11;;;;;;;3.90;2.45;;;22.80;97.20;;;;;;1748714;28;20205;-71
2022/09/07 07:24:03;;;;;;;5.68;2.80;;;22.80;97.20;;;;;;1754002;28;20288;-73
2022/09/07 07:24:53;;;;;;;5.32;3.22;;;22.80;97.20;;;;;;1754654;28;20198;-74
2022/09/07 07:25:45;;;;;;;4.80;2.83;;;22.90;97.20;;;;;;1754625;28;20233;-73
2022/09/07 07:26:37;;;;;;;10.43;2.58;;;22.90;97.20;;;;;;1754449;28;20443;-74
2022/09/07 07:27:31;;;;;;;4.88;2.90;;;22.90;97.20;;;;;;1754256;28;20685;-73
2022/09/07 07:28:22;;;;;;;3.47;2.65;;;22.90;97.20;;;;;;1758023;28;20239;-76
2022/09/07 07:29:14;;;;;;;3.50;2.55;;;22.90;97.20;;;;;;1757258;28;20189;-73
2022/09/07 07:30:06;;;;;;;4.32;2.78;;;22.90;97.20;;;;;;1753772;28;20541;-73
2022/09/07 07:30:59;;;;;;;4.85;2.70;;;22.90;97.20;;;;;;1753999;28;20205;-73
2022/09/07 07:31:50;;;;;;;6.30;2.42;;;22.90;97.20;;;;;;1754260;28;20229;-74
2022/09/07 07:32:43;;;;;;;5.03;2.50;;;22.90;97.20;;;;;;1754223;28;20343;-74
2022/09/07 07:33:35;;;;;;;5.10;2.97;;;23.00;97.20;;;;;;1754180;28;20443;-73
2022/09/07 07:34:27;;;;;;;5.25;3.55;;;23.00;97.20;;;;;;1754362;28;20289;-73
2022/09/07 07:35:18;;;;;;;4.90;2.65;;;23.00;97.20;;;;;;1754237;28;20284;-73
2022/09/07 07:36:14;;;;;;;4.67;2.70;;;23.00;97.20;;;;;;1754843;28;20198;-73
2022/09/07 07:37:04;;;;;;;3.85;2.42;;;23.00;97.20;;;;;;1753962;28;20459;-74
2022/09/07 07:37:56;;;;;;;7.30;2.70;;;23.10;97.20;;;;;;1753673;28;20198;-73
2022/09/07 07:38:49;;;;;;;4.60;2.75;;;23.10;97.20;;;;;;1754436;28;20408;-73
2022/09/07 07:39:41;;;;;;;4.82;2.80;;;23.10;97.20;;;;;;1746963;28;20588;-73
2022/09/07 07:40:33;;;;;;;4.45;3.08;;;23.10;97.20;;;;;;1747535;28;20702;-73
2022/09/07 07:41:28;;;;;;;4.40;2.60;;;23.10;97.20;;;;;;1747704;28;20198;-73
2022/09/07 07:42:19;;;;;;;4.38;2.90;;;23.10;97.20;;;;;;1747766;28;20217;-73
2022/09/07 07:43:11;;;;;;;6.10;2.80;;;23.10;97.20;;;;;;1747805;28;20195;-73
2022/09/07 07:44:02;;;;;;;7.82;3.00;;;23.10;97.20;;;;;;1747610;28;20230;-73
2022/09/07 07:44:54;;;;;;;2.92;2.40;;;23.10;97.20;;;;;;1747785;28;20190;-74
2022/09/07 07:45:45;;;;;;;7.28;3.38;;;23.10;97.20;;;;;;1749063;28;20202;-73
2022/09/07 07:46:37;;;;;;;5.03;2.90;;;23.10;97.20;;;;;;1748974;28;20676;-73
2022/09/07 07:47:28;;;;;;;4.60;2.88;;;23.10;97.20;;;;;;1748638;28;20228;-73
2022/09/07 07:48:19;;;;;;;5.70;3.03;;;23.10;97.20;;;;;;1749091;28;20226;-74
2022/09/07 07:49:10;;;;;;;5.47;3.25;;;23.10;97.20;;;;;;1748699;28;20202;-73
2022/09/07 07:50:03;;;;;;;3.23;2.93;;;23.10;97.20;;;;;;1749082;28;20198;-74
2022/09/07 07:50:57;;;;;;;4.93;2.55;;;23.10;97.20;;;;;;1749193;28;20198;-73
2022/09/07 07:51:53;;;;;;;6.50;3.38;;;23.20;97.20;;;;;;1749208;28;20206;-73
2022/09/07 07:52:44;;;;;;;6.35;2.65;;;23.20;97.20;;;;;;1749192;28;20206;-73
2022/09/07 07:53:37;;;;;;;4.33;2.27;;;23.30;97.20;;;;;;1749201;28;20229;-73
2022/09/07 07:54:28;;;;;;;4.88;2.78;;;23.30;97.20;;;;;;1749167;28;20206;-73
2022/09/07 07:55:20;;;;;;;9.00;3.20;;;23.30;97.20;;;;;;1749076;28;20298;-74
2022/09/07 07:56:11;;;;;;;6.53;2.90;;;23.40;97.20;;;;;;1749060;28;20205;-75
2022/09/07 07:57:04;;;;;;;6.95;3.00;;;23.40;97.20;;;;;;1748817;28;20646;-73
2022/09/07 07:57:54;;;;;;;7.07;2.72;;;23.50;97.20;;;;;;1748598;28;20217;-73
2022/09/07 07:58:47;;;;;;;8.90;2.93;;;23.50;97.20;;;;;;1749063;28;20234;-73
2022/09/07 07:59:38;;;;;;;6.95;2.90;;;23.50;97.20;;;;;;1748771;28;20845;-74
2022/09/07 08:00:30;;;;;;;6.20;2.90;;;23.60;97.20;;;;;;1749129;28;20590;-73
2022/09/07 08:01:22;;;;;;;9.40;3.80;;;23.60;97.20;;;;;;1749090;28;20448;-73
2022/09/07 08:02:14;;;;;;;6.95;3.00;;;23.70;97.20;;;;;;1748460;28;20561;-75
2022/09/07 08:03:06;;;;;;;5.85;3.13;;;23.70;97.20;;;;;;1755906;28;20206;-73
2022/09/07 08:03:58;;;;;;;5.40;3.00;;;23.70;97.20;;;;;;1755971;28;20202;-74
2022/09/07 08:04:50;;;;;;;4.50;2.88;;;23.80;97.20;;;;;;1755971;28;20194;-74
2022/09/07 08:05:41;;;;;;;3.78;2.70;;;23.80;97.20;;;;;;1755890;28;20675;-73
2022/09/07 08:06:32;;;;;;;4.70;2.95;;;23.80;97.20;;;;;;1755916;28;20202;-73
2022/09/07 08:07:26;;;;;;;4.10;3.05;;;23.80;97.20;;;;;;1755424;28;20546;-73
2022/09/07 08:08:17;;;;;;;7.05;2.42;;;23.90;97.20;;;;;;1755854;28;20197;-73
2022/09/07 08:09:09;;;;;;;4.22;2.80;;;23.90;97.20;;;;;;1753112;28;20652;-73
2022/09/07 08:10:00;;;;;;;5.10;3.20;;;23.90;97.20;;;;;;1748283;28;20241;-73
2022/09/07 08:10:52;;;;;;;6.23;3.27;;;23.90;97.20;;;;;;1748503;28;20201;-73
2022/09/07 08:11:43;;;;;;;6.07;2.85;;;24.00;97.20;;;;;;1748408;28;20206;-73
2022/09/07 08:12:35;;;;;;;7.32;3.05;;;24.00;97.20;;;;;;1748430;28;20305;-73
2022/09/07 08:13:29;;;;;;;4.82;2.90;;;24.00;97.20;;;;;;1748376;28;20202;-75
2022/09/07 08:14:21;;;;;;;5.38;2.75;;;24.10;97.20;;;;;;1748545;28;20252;-74
2022/09/07 08:15:12;;;;;;;4.60;2.80;;;24.10;97.20;;;;;;1749017;28;20277;-73
2022/09/07 08:16:05;;;;;;;4.27;2.70;;;24.10;97.20;;;;;;1748878;28;20680;-73
2022/09/07 08:16:56;;;;;;;6.18;2.90;;;24.10;97.20;;;;;;1748574;28;20567;-74
2022/09/07 08:17:48;;;;;;;4.63;3.00;;;24.10;97.20;;;;;;1748153;28;20202;-73
2022/09/07 08:18:40;;;;;;;5.75;2.60;;;24.20;97.20;;;;;;1748053;28;20440;-73
2022/09/07 08:19:31;;;;;;;7.72;2.97;;;24.20;97.20;;;;;;1753015;28;20194;-73
2022/09/07 08:20:23;;;;;;;5.93;3.00;;;24.30;97.20;;;;;;1755395;28;20280;-73
2022/09/07 08:21:15;;;;;;;5.57;3.58;;;24.30;97.20;;;;;;1755899;28;20205;-73
2022/09/07 08:22:07;;;;;;;6.05;2.95;;;24.30;97.20;;;;;;1755773;28;20198;-74
2022/09/07 08:22:59;;;;;;;7.05;3.35;;;24.40;97.20;;;;;;1755811;28;20206;-75
2022/09/07 08:23:51;;;;;;;5.78;2.60;;;24.40;97.20;;;;;;1755956;28;20194;-73
2022/09/07 08:24:42;;;;;;;6.20;3.20;;;24.40;97.20;;;;;;1755834;28;20197;-73
2022/09/07 08:25:34;;;;;;;5.07;3.30;;;24.50;97.20;;;;;;1755895;28;20202;-72
2022/09/07 08:26:25;;;;;;;5.97;3.13;;;24.50;97.20;;;;;;1755834;28;20615;-74
2022/09/07 08:27:18;;;;;;;7.77;3.10;;;24.50;97.20;;;;;;1755139;28;20193;-73
2022/09/07 08:28:09;;;;;;;4.15;2.35;;;24.60;97.20;;;;;;1755843;28;20304;-73
2022/09/07 08:29:00;;;;;;;6.60;3.77;;;24.60;97.20;;;;;;1754996;28;20194;-73
2022/09/07 08:29:51;;;;;;;5.25;2.92;;;24.60;97.20;;;;;;1748856;28;20199;-73
2022/09/07 08:30:43;;;;;;;4.70;2.60;;;24.60;97.20;;;;;;1748558;28;20672;-74
2022/09/07 08:31:34;;;;;;;5.00;3.10;;;24.60;97.20;;;;;;1748553;28;20224;-74
2022/09/07 08:32:26;;;;;;;5.10;3.37;;;24.60;97.20;;;;;;1742601;28;20197;-73
2022/09/07 08:33:17;;;;;;;5.55;2.80;;;24.70;97.20;;;;;;1753555;28;20197;-73
2022/09/07 08:34:09;;;;;;;7.35;3.42;;;24.70;97.20;;;;;;1755439;28;20268;-73
2022/09/07 08:35:00;;;;;;;5.28;2.70;;;24.70;97.20;;;;;;1749402;28;20195;-73
2022/09/07 08:35:56;;;;;;;4.50;2.77;;;24.70;97.20;;;;;;1752491;28;20186;-74
2022/09/07 08:36:46;;;;;;;8.00;3.38;;;24.70;97.20;;;;;;1754065;28;20511;-74
2022/09/07 08:37:38;;;;;;;4.93;3.10;;;24.80;97.20;;;;;;1750570;28;20186;-74
2022/09/07 08:38:32;;;;;;;8.55;3.25;;;24.80;97.20;;;;;;1754705;28;20209;-72
2022/09/07 08:39:23;;;;;;;6.63;2.95;;;24.90;97.20;;;;;;1754753;28;20671;-73
2022/09/07 08:40:15;;;;;;;5.10;2.75;;;24.90;97.20;;;;;;1755706;28;20204;-73
2022/09/07 08:41:28;;;;;;;6.30;3.00;;;25.00;97.20;;;;;;1748121;28;20222;-73
2022/09/07 08:42:33;;;;;;;8.82;3.08;;;25.00;97.20;;;;;;1753318;28;20210;-73
2022/09/07 08:43:37;;;;;;;8.48;3.00;;;25.10;97.20;;;;;;1755644;28;20198;-73
2022/09/07 08:44:33;;;;;;;5.63;3.22;;;25.20;97.20;;;;;;1755699;28;20185;-72
2022/09/07 08:45:29;;;;;;;5.35;3.15;;;25.20;97.20;;;;;;1755534;28;20687;-73
2022/09/07 08:46:29;;;;;;;6.97;2.92;;;25.30;97.20;;;;;;1755617;28;20642;-73
2022/09/07 08:47:31;;;;;;;6.35;2.85;;;25.40;97.20;;;;;;1754753;28;20198;-73
2022/09/07 08:48:28;;;;;;;5.47;3.17;;;25.50;97.20;;;;;;1755515;28;20637;-73
2022/09/07 08:49:26;;;;;;;7.97;3.40;;;25.50;97.20;;;;;;1754850;28;20308;-75
2022/09/07 08:50:20;;;;;;;6.68;3.30;;;25.60;97.20;;;;;;1755602;28;20874;-74
2022/09/07 08:51:20;;;;;;;6.80;2.88;;;25.60;97.20;;;;;;1755326;28;20211;-73
2022/09/07 08:52:15;;;;;;;7.57;2.75;;;25.60;97.20;;;;;;1755683;28;20186;-74
2022/09/07 08:53:12;;;;;;;4.38;3.05;;;25.60;97.20;;;;;;1755569;28;20204;-73
2022/09/07 08:54:04;;;;;;;8.98;3.40;;;25.60;97.20;;;;;;1755584;28;20653;-74
2022/09/07 08:55:01;;;;;;;4.60;2.80;;;25.70;97.20;;;;;;1755551;28;20220;-73
2022/09/07 08:55:57;;;;;;;7.28;3.25;;;25.70;97.20;;;;;;1755605;28;20189;-73
2022/09/07 08:56:50;;;;;;;4.00;2.70;;;25.80;97.20;;;;;;1754322;28;20222;-73
2022/09/07 08:57:47;;;;;;;3.88;2.90;;;25.80;97.20;;;;;;1754009;28;20244;-73
2022/09/07 08:58:43;;;;;;;3.17;2.80;;;25.80;97.20;;;;;;1755442;28;20213;-73
2022/09/07 08:59:40;;;;;;;7.15;2.80;;;25.90;97.20;;;;;;1755517;28;20444;-73
2022/09/07 09:00:31;;;;;;;9.32;2.67;;;26.00;97.20;;;;;;1755716;28;20197;-74
2022/09/07 09:01:29;;;;;;;4.63;2.83;;;26.00;97.20;;;;;;1755287;28;20232;-73
2022/09/07 09:02:20;;;;;;;6.97;2.72;;;26.10;97.20;;;;;;1755584;28;20190;-73
2022/09/07 09:03:20;;;;;;;4.13;2.60;;;26.10;97.20;;;;;;1755585;28;20202;-73
2022/09/07 09:04:17;;;;;;;4.43;2.87;;;26.20;97.20;;;;;;1755574;28;20210;-72
2022/09/07 09:05:20;;;;;;;4.60;2.60;;;26.20;97.20;;;;;;1755511;28;20412;-73
2022/09/07 09:06:21;;;;;;;4.35;2.58;;;26.30;97.20;;;;;;1755550;28;20206;-73
2022/09/07 09:07:23;;;;;;;7.82;2.55;;;26.40;97.20;;;;;;1754805;28;20174;-73
2022/09/07 09:08:36;;;;;;;5.13;2.70;;;26.40;97.20;;;;;;1748549;28;20202;-74
2022/09/07 09:09:45;;;;;;;3.40;2.30;;;26.40;97.20;;;;;;1748415;28;20491;-73
2022/09/07 09:10:46;;;;;;;5.75;3.33;;;26.50;97.20;;;;;;1748530;28;20297;-74
2022/09/07 09:11:47;;;;;;;7.38;3.58;;;26.60;97.20;;;;;;1748321;28;20238;-74
2022/09/07 09:12:58;;;;;;;5.35;2.55;;;26.60;97.20;;;;;;1748462;28;20187;-74
2022/09/07 09:14:00;;;;;;;5.38;3.00;;;26.70;97.20;;;;;;1748650;28;20241;-73
2022/09/07 09:15:07;;;;;;;5.00;3.50;;;26.70;97.20;;;;;;1748544;28;20552;-73
2022/09/07 09:16:04;;;;;;;6.70;3.72;;;26.70;97.20;;;;;;1748245;28;20231;-73
2022/09/07 09:17:01;;;;;;;5.20;2.47;;;26.70;97.20;;;;;;1748071;28;20222;-73
2022/09/07 09:17:57;;;;;;;4.18;2.88;;;26.70;97.20;;;;;;1751321;28;20198;-74
2022/09/07 09:19:04;;;;;;;5.53;2.97;;;26.70;97.20;;;;;;1755408;28;20684;-74
2022/09/07 09:20:04;;;;;;;5.10;2.65;;;26.70;97.20;;;;;;1755367;28;20235;-73
2022/09/07 09:20:58;;;;;;;9.82;3.28;;;26.70;97.20;;;;;;1755343;28;20553;-73
2022/09/07 09:21:59;;;;;;;5.35;2.95;;;26.70;97.20;;;;;;1755522;28;20201;-73
2022/09/07 09:22:51;;;;;;;4.30;2.55;;;26.70;97.20;;;;;;1755360;28;20265;-74
2022/09/07 09:23:45;;;;;;;5.60;2.85;;;26.80;97.20;;;;;;1755273;28;20205;-74
2022/09/07 09:24:43;;;;;;;6.57;3.00;;;26.80;97.20;;;;;;1755452;28;20202;-74
2022/09/07 09:25:36;;;;;;;5.20;2.65;;;26.80;97.20;;;;;;1755523;28;21036;-73
2022/09/07 09:26:29;;;;;;;8.13;3.03;;;26.70;97.20;;;;;;1755162;28;20213;-73
2022/09/07 09:27:20;;;;;;;4.40;2.77;;;26.70;97.20;;;;;;1754667;28;20209;-74
2022/09/07 09:28:12;;;;;;;7.07;3.13;;;26.70;97.20;;;;;;1753707;28;20440;-74
2022/09/07 09:29:12;;;;;;;3.70;2.83;;;26.80;97.20;;;;;;1755201;28;20228;-72
2022/09/07 09:30:12;;;;;;;5.75;3.20;;;26.80;97.20;;;;;;1755262;28;20424;-72
2022/09/07 09:31:03;;;;;;;4.85;2.65;;;26.90;97.20;;;;;;1755311;28;20198;-73
2022/09/07 09:31:55;;;;;;;4.45;2.47;;;26.90;97.20;;;;;;1755442;28;20660;-73
2022/09/07 09:32:48;;;;;;;9.45;2.67;;;26.90;97.20;;;;;;1755216;28;20210;-73
2022/09/07 09:33:40;;;;;;;3.78;2.85;;;27.00;97.20;;;;;;1755239;28;20204;-73
2022/09/07 09:34:31;;;;;;;4.90;2.47;;;27.00;97.20;;;;;;1755384;28;20235;-73
2022/09/07 09:35:28;;;;;;;5.60;2.80;;;27.00;97.20;;;;;;1755093;28;20228;-75